Time;durP1;ratioP1;P1;durP2;ratioP2;P2;SDS_P1;SDS_P2;PMS_P1;PMS_P2;Temp;Humidity;BMP_temperature;BMP_pressure;BME280_temperature;BME280_humidity;BME280_pressure;Samples;Min_cycle;Max_cycle;Signal;HPM_P1;HPM_P2
2022/07/18 00:00:08;;;;;;;8.32;2.20;;;;;;;18.65;53.02;100242.09;344159;28;1898;-73
2022/07/18 00:00:20;;;;;;;7.97;2.13;;;;;;;18.63;53.31;100246.56;344377;28;1807;-73
2022/07/18 00:00:32;;;;;;;8.90;2.38;;;;;;;18.65;52.96;100244.72;344887;28;1276;-74
2022/07/18 00:00:44;;;;;;;8.38;2.50;;;;;;;18.65;52.59;100250.00;345186;28;1019;-73
2022/07/18 00:00:56;;;;;;;7.97;2.53;;;;;;;18.67;52.77;100248.13;345247;28;1124;-73
2022/07/18 00:01:08;;;;;;;8.95;2.50;;;;;;;18.67;53.10;100245.50;346705;28;1030;-74
2022/07/18 00:01:20;;;;;;;8.07;2.45;;;;;;;18.65;53.09;100244.72;344304;28;1760;-73
2022/07/18 00:01:32;;;;;;;7.93;2.33;;;;;;;18.67;52.68;100249.88;345138;28;1660;-73
2022/07/18 00:01:44;;;;;;;6.93;2.40;;;;;;;18.68;52.58;100243.69;345253;28;1191;-73
2022/07/18 00:01:59;;;;;;;6.60;2.15;;;;;;;18.66;52.48;100243.78;344713;28;1271;-73
2022/07/18 00:02:11;;;;;;;7.25;2.30;;;;;;;18.63;52.84;100246.56;344833;28;1963;-73
2022/07/18 00:02:23;;;;;;;8.75;2.33;;;;;;;18.64;52.96;100247.44;344543;28;1696;-74
2022/07/18 00:02:36;;;;;;;12.48;2.35;;;;;;;18.64;52.96;100248.28;344210;28;1051;-73
2022/07/18 00:02:48;;;;;;;11.30;2.30;;;;;;;18.64;53.08;100237.75;344910;28;1902;-74
2022/07/18 00:03:00;;;;;;;12.52;2.30;;;;;;;18.67;52.84;100250.75;343688;28;1802;-74
2022/07/18 00:03:12;;;;;;;9.60;2.40;;;;;;;18.68;53.23;100241.91;344221;28;1753;-73
2022/07/18 00:03:24;;;;;;;9.00;2.42;;;;;;;18.69;53.28;100246.25;344871;28;1859;-73
2022/07/18 00:03:36;;;;;;;6.45;2.33;;;;;;;18.71;53.01;100244.38;344592;28;1019;-74
2022/07/18 00:03:47;;;;;;;6.32;2.33;;;;;;;18.71;53.13;100244.38;344712;28;1043;-74
2022/07/18 00:03:59;;;;;;;7.03;2.30;;;;;;;18.71;53.14;100246.16;344805;28;1324;-74
2022/07/18 00:04:11;;;;;;;8.18;2.30;;;;;;;18.69;53.14;100243.63;344678;28;1722;-73
2022/07/18 00:04:24;;;;;;;12.43;2.30;;;;;;;18.72;52.93;100243.44;344477;28;1648;-74
2022/07/18 00:04:36;;;;;;;12.55;2.35;;;;;;;18.71;52.76;100246.16;344727;28;1031;-74
2022/07/18 00:04:48;;;;;;;10.98;2.35;;;;;;;18.70;52.97;100247.94;345143;28;1249;-74
2022/07/18 00:05:01;;;;;;;11.25;2.50;;;;;;;18.71;52.91;100244.38;345089;28;1295;-74
2022/07/18 00:05:14;;;;;;;8.32;2.30;;;;;;;18.71;53.07;100244.38;344678;28;1802;-74
2022/07/18 00:05:26;;;;;;;6.72;2.10;;;;;;;18.69;52.84;100241.00;344278;28;1713;-74
2022/07/18 00:05:38;;;;;;;7.85;2.10;;;;;;;18.68;52.91;100249.81;345209;28;1223;-74
2022/07/18 00:05:50;;;;;;;8.32;2.28;;;;;;;18.66;52.94;100249.03;344735;28;1825;-73
2022/07/18 00:06:02;;;;;;;9.73;2.25;;;;;;;18.66;52.58;100246.41;344913;28;1166;-74
2022/07/18 00:06:14;;;;;;;9.75;2.30;;;;;;;18.64;52.88;100240.38;344438;28;1727;-73
2022/07/18 00:06:26;;;;;;;6.93;2.10;;;;;;;18.65;52.71;100235.97;344657;28;1518;-74
2022/07/18 00:06:38;;;;;;;5.93;2.25;;;;;;;18.67;52.22;100248.13;345231;28;1240;-73
2022/07/18 00:06:51;;;;;;;9.80;2.55;;;;;;;18.68;52.20;100244.53;345292;28;1206;-73
2022/07/18 00:07:03;;;;;;;10.38;2.45;;;;;;;18.68;52.24;100239.28;345315;28;1286;-74
2022/07/18 00:07:15;;;;;;;9.88;2.22;;;;;;;18.69;52.32;100241.00;344727;28;1846;-73
2022/07/18 00:07:27;;;;;;;8.13;2.40;;;;;;;18.69;51.79;100241.00;344268;28;1729;-74
2022/07/18 00:07:39;;;;;;;7.55;2.22;;;;;;;18.71;52.04;100241.75;345090;28;1351;-73
2022/07/18 00:07:51;;;;;;;5.53;2.03;;;;;;;18.70;52.51;100237.41;345206;28;1051;-73
2022/07/18 00:08:03;;;;;;;9.63;2.05;;;;;;;18.69;52.83;100246.25;345059;28;1206;-73
2022/07/18 00:08:15;;;;;;;10.27;2.13;;;;;;;18.67;52.92;100242.88;344118;28;1743;-76
2022/07/18 00:08:27;;;;;;;11.05;2.28;;;;;;;18.64;52.96;100245.66;345073;28;1552;-73
2022/07/18 00:08:39;;;;;;;8.43;2.17;;;;;;;18.67;52.79;100242.88;345001;28;1109;-74
2022/07/18 00:08:51;;;;;;;11.18;2.20;;;;;;;18.66;52.93;100241.16;345018;28;1575;-73
2022/07/18 00:09:03;;;;;;;9.15;2.15;;;;;;;18.66;53.18;100249.03;344858;28;1224;-74
2022/07/18 00:09:15;;;;;;;5.72;2.08;;;;;;;18.66;53.02;100241.16;344263;28;1876;-74
2022/07/18 00:09:27;;;;;;;5.03;2.03;;;;;;;18.64;53.28;100247.44;344888;28;1722;-74
2022/07/18 00:09:46;;;;;;;7.50;2.10;;;;;;;18.63;52.74;100246.56;345155;28;1191;-73
2022/07/18 00:09:59;;;;;;;7.13;2.13;;;;;;;18.65;52.42;100236.84;345239;28;1271;-74
2022/07/18 00:10:11;;;;;;;5.20;2.10;;;;;;;18.64;52.73;100242.19;345064;28;1018;-73
2022/07/18 00:10:23;;;;;;;7.07;2.35;;;;;;;18.63;52.27;100236.03;343375;28;1492;-74
2022/07/18 00:10:35;;;;;;;8.45;2.30;;;;;;;18.65;51.99;100244.72;342921;28;1186;-74
2022/07/18 00:10:47;;;;;;;8.18;2.30;;;;;;;18.66;52.34;100243.78;343714;28;1039;-74
2022/07/18 00:10:59;;;;;;;7.22;2.17;;;;;;;18.64;52.47;100243.03;342317;28;1376;-74
2022/07/18 00:11:11;;;;;;;5.53;2.20;;;;;;;18.64;51.85;100243.03;342008;28;1258;-73
2022/07/18 00:11:23;;;;;;;6.72;2.10;;;;;;;18.62;52.01;100239.63;341809;28;1795;-73
2022/07/18 00:11:34;;;;;;;10.27;2.20;;;;;;;18.62;52.38;100242.25;341129;28;1992;-74
2022/07/18 00:11:46;;;;;;;10.23;2.10;;;;;;;18.63;52.44;100243.09;342161;28;1044;-74
2022/07/18 00:11:58;;;;;;;6.38;2.20;;;;;;;18.61;52.77;100237.91;340905;28;1695;-74
2022/07/18 00:12:11;;;;;;;6.10;2.30;;;;;;;18.60;52.99;100244.13;341741;28;1815;-73
2022/07/18 00:12:23;;;;;;;5.70;2.25;;;;;;;18.60;52.38;100241.50;342419;28;1988;-74
2022/07/18 00:12:35;;;;;;;7.65;2.30;;;;;;;18.58;52.57;100243.38;342609;28;1684;-74
2022/07/18 00:12:48;;;;;;;10.25;2.50;;;;;;;18.55;53.04;100239.13;342921;28;1753;-73
2022/07/18 00:13:00;;;;;;;14.02;2.50;;;;;;;18.54;53.35;100244.47;343220;28;1361;-74
2022/07/18 00:13:12;;;;;;;14.55;2.40;;;;;;;18.53;53.63;100240.13;344678;28;1859;-73
2022/07/18 00:13:24;;;;;;;7.75;2.08;;;;;;;18.56;53.06;100239.97;344705;28;2299;-74
2022/07/18 00:13:36;;;;;;;7.60;2.30;;;;;;;18.56;53.00;100245.25;345017;28;1019;-74
2022/07/18 00:13:50;;;;;;;8.25;2.33;;;;;;;18.59;53.03;100238.94;345026;28;1015;-74
2022/07/18 00:14:02;;;;;;;11.55;2.15;;;;;;;18.58;52.77;100237.25;344852;28;1276;-74
2022/07/18 00:14:14;;;;;;;11.50;2.00;;;;;;;18.57;52.59;100239.03;344145;28;1860;-73
2022/07/18 00:14:26;;;;;;;6.63;1.95;;;;;;;18.59;52.79;100238.94;343723;28;1694;-74
2022/07/18 00:14:39;;;;;;;5.80;2.00;;;;;;;18.59;52.87;100244.22;345167;28;1070;-74
2022/07/18 00:14:51;;;;;;;6.75;2.00;;;;;;;18.61;52.66;100244.97;344965;28;1624;-74
2022/07/18 00:15:04;;;;;;;7.28;2.08;;;;;;;18.61;53.25;100240.53;344953;28;1343;-73
2022/07/18 00:15:16;;;;;;;6.90;2.13;;;;;;;18.61;53.15;100237.91;344551;28;1738;-73
2022/07/18 00:15:28;;;;;;;5.70;2.10;;;;;;;18.62;53.45;100239.63;344964;28;1846;-74
2022/07/18 00:15:40;;;;;;;6.50;2.10;;;;;;;18.62;53.37;100242.25;343742;28;1608;-73
2022/07/18 00:15:52;;;;;;;6.38;2.10;;;;;;;18.61;53.42;100248.44;344020;28;1593;-74
2022/07/18 00:16:06;;;;;;;4.72;1.92;;;;;;;18.61;53.19;100237.91;344931;28;1122;-73
2022/07/18 00:16:18;;;;;;;4.55;1.88;;;;;;;18.59;53.10;100239.78;344077;28;1845;-73
2022/07/18 00:16:31;;;;;;;6.65;1.85;;;;;;;18.60;53.10;100241.50;344385;28;1849;-73
2022/07/18 00:16:43;;;;;;;6.78;1.95;;;;;;;18.59;53.31;100245.06;343545;28;1852;-74
2022/07/18 00:16:55;;;;;;;4.93;2.10;;;;;;;18.60;53.13;100244.13;344557;28;1928;-74
2022/07/18 00:17:07;;;;;;;5.20;2.08;;;;;;;18.60;53.29;100241.50;344813;28;868;-74
2022/07/18 00:17:19;;;;;;;7.40;2.03;;;;;;;18.60;52.87;100241.50;343883;28;1809;-73
2022/07/18 00:17:32;;;;;;;7.20;1.90;;;;;;;18.62;52.77;100244.06;343484;28;1768;-74
2022/07/18 00:17:44;;;;;;;6.65;2.10;;;;;;;18.61;53.11;100243.19;343381;28;1307;-74
2022/07/18 00:17:56;;;;;;;7.90;2.20;;;;;;;18.60;53.14;100246.75;343902;28;1858;-73
2022/07/18 00:18:08;;;;;;;10.15;2.22;;;;;;;18.63;52.75;100236.03;345051;28;1067;-74
2022/07/18 00:18:20;;;;;;;10.52;2.15;;;;;;;18.64;52.35;100237.75;343892;28;1719;-74
2022/07/18 00:18:31;;;;;;;7.88;2.00;;;;;;;18.68;52.16;100236.66;344696;28;1889;-74
2022/07/18 00:18:44;;;;;;;5.78;2.00;;;;;;;18.70;51.90;100234.78;344928;28;1100;-74
2022/07/18 00:18:58;;;;;;;4.75;2.00;;;;;;;18.71;51.92;100236.47;344613;28;1844;-74
2022/07/18 00:19:10;;;;;;;4.30;2.00;;;;;;;18.68;53.11;100244.53;344035;28;1088;-74
2022/07/18 00:19:22;;;;;;;6.07;1.90;;;;;;;18.69;52.84;100238.34;343117;28;1877;-74
2022/07/18 00:19:36;;;;;;;6.57;1.95;;;;;;;18.71;52.17;100241.75;344048;28;1793;-74
2022/07/18 00:19:48;;;;;;;7.78;2.00;;;;;;;18.73;51.87;100242.50;345093;28;1086;-74
2022/07/18 00:20:00;;;;;;;6.68;2.00;;;;;;;18.71;52.18;100243.50;344274;28;1973;-74
2022/07/18 00:20:12;;;;;;;4.07;1.90;;;;;;;18.71;52.00;100244.38;344746;28;1589;-74
2022/07/18 00:20:25;;;;;;;5.50;1.92;;;;;;;18.73;51.57;100241.63;343678;28;1007;-74
2022/07/18 00:20:37;;;;;;;6.72;2.10;;;;;;;18.74;51.06;100238.94;344040;28;1685;-74
2022/07/18 00:20:49;;;;;;;8.20;2.13;;;;;;;18.76;51.00;100241.47;344963;28;1126;-74
2022/07/18 00:21:01;;;;;;;9.45;2.10;;;;;;;18.76;50.60;100237.06;344845;28;1313;-74
2022/07/18 00:21:13;;;;;;;10.05;2.20;;;;;;;18.73;51.37;100242.50;345009;28;1035;-74
2022/07/18 00:21:26;;;;;;;9.50;2.10;;;;;;;18.75;51.08;100245.03;344866;28;1190;-74
2022/07/18 00:21:38;;;;;;;8.80;2.13;;;;;;;18.75;51.34;100245.03;345014;28;1099;-74
2022/07/18 00:21:50;;;;;;;8.85;2.05;;;;;;;18.74;51.11;100238.09;345017;28;1155;-75
2022/07/18 00:22:03;;;;;;;6.43;2.00;;;;;;;18.71;51.10;100240.88;345104;28;1417;-73
2022/07/18 00:22:15;;;;;;;5.63;2.08;;;;;;;18.66;51.39;100245.56;344864;28;1043;-74
2022/07/18 00:22:27;;;;;;;5.32;2.15;;;;;;;18.60;51.97;100246.75;344957;28;1035;-74
2022/07/18 00:22:39;;;;;;;5.45;2.15;;;;;;;18.58;52.00;100242.53;344614;28;1214;-74
2022/07/18 00:22:51;;;;;;;5.95;1.95;;;;;;;18.54;51.65;100244.47;345359;28;716;-74
2022/07/18 00:23:03;;;;;;;8.18;2.15;;;;;;;18.52;51.65;100239.28;344776;28;1379;-74
2022/07/18 00:23:15;;;;;;;8.95;2.25;;;;;;;18.52;52.20;100238.44;344927;28;1102;-74
2022/07/18 00:23:27;;;;;;;7.97;2.22;;;;;;;18.53;52.20;100241.00;344909;28;1070;-74
2022/07/18 00:23:39;;;;;;;5.35;2.05;;;;;;;18.55;52.49;100248.78;345145;28;1215;-74
2022/07/18 00:23:51;;;;;;;4.38;2.20;;;;;;;18.52;52.07;100243.72;345098;28;1188;-74
2022/07/18 00:24:03;;;;;;;7.57;2.20;;;;;;;18.52;51.79;100238.44;345344;28;1065;-74
2022/07/18 00:24:15;;;;;;;8.75;2.25;;;;;;;18.52;52.28;100238.44;344320;28;1890;-74
2022/07/18 00:24:27;;;;;;;5.28;2.20;;;;;;;18.53;52.33;100237.50;344922;28;1677;-74
2022/07/18 00:24:39;;;;;;;5.15;2.20;;;;;;;18.55;52.16;100243.53;344890;28;1902;-74
2022/07/18 00:24:51;;;;;;;6.20;2.20;;;;;;;18.53;52.17;100241.00;344418;28;1238;-74
2022/07/18 00:25:04;;;;;;;8.13;2.03;;;;;;;18.53;52.41;100245.41;344799;28;1352;-74
2022/07/18 00:25:16;;;;;;;7.45;1.90;;;;;;;18.51;52.76;100244.63;344208;28;1766;-74
2022/07/18 00:25:28;;;;;;;9.00;1.92;;;;;;;18.52;52.61;100243.72;344947;28;1612;-74
2022/07/18 00:25:40;;;;;;;10.23;2.17;;;;;;;18.50;53.14;100241.16;343911;28;1675;-74
2022/07/18 00:25:52;;;;;;;11.27;2.40;;;;;;;18.53;52.81;100242.75;345250;28;1292;-74
2022/07/18 00:26:04;;;;;;;7.28;2.40;;;;;;;18.53;53.14;100245.41;344824;28;1820;-73
2022/07/18 00:26:16;;;;;;;7.57;2.05;;;;;;;18.52;53.23;100241.09;345120;28;1740;-74
2022/07/18 00:26:28;;;;;;;7.45;1.90;;;;;;;18.52;53.43;100244.56;345064;28;1066;-74
2022/07/18 00:26:41;;;;;;;7.30;2.00;;;;;;;18.51;53.41;100248.13;343570;28;1047;-73
2022/07/18 00:26:53;;;;;;;6.25;2.03;;;;;;;18.52;52.99;100241.09;342534;28;1170;-73
2022/07/18 00:27:07;;;;;;;8.20;2.15;;;;;;;18.52;53.39;100243.72;344505;28;1570;-74
2022/07/18 00:27:19;;;;;;;9.57;2.33;;;;;;;18.51;53.25;100242.00;344317;28;1781;-73
2022/07/18 00:27:31;;;;;;;7.53;2.33;;;;;;;18.49;53.23;100238.59;344761;28;1435;-73
2022/07/18 00:27:43;;;;;;;8.60;2.00;;;;;;;18.49;53.00;100238.59;345013;28;1351;-74
2022/07/18 00:27:55;;;;;;;9.20;2.00;;;;;;;18.48;53.04;100242.19;345095;28;1249;-74
2022/07/18 00:28:07;;;;;;;8.10;2.00;;;;;;;18.50;52.95;100240.31;345193;28;1152;-74
2022/07/18 00:28:19;;;;;;;6.72;2.10;;;;;;;18.51;52.68;100242.00;343986;28;1714;-74
2022/07/18 00:28:31;;;;;;;7.80;2.10;;;;;;;18.50;52.93;100238.53;345292;28;1700;-74
2022/07/18 00:28:43;;;;;;;8.65;2.13;;;;;;;18.51;52.70;100236.75;343822;28;1706;-74
2022/07/18 00:28:55;;;;;;;7.05;2.20;;;;;;;18.50;52.70;100240.31;344069;28;1696;-74
2022/07/18 00:29:07;;;;;;;9.13;2.30;;;;;;;18.50;52.94;100246.44;345076;28;1268;-75
2022/07/18 00:29:19;;;;;;;9.73;2.28;;;;;;;18.49;53.20;100233.34;344391;28;1602;-74
2022/07/18 00:29:31;;;;;;;8.43;2.30;;;;;;;18.50;53.22;100235.06;344831;28;1817;-74
2022/07/18 00:29:43;;;;;;;6.07;2.17;;;;;;;18.51;53.35;100236.75;344962;28;1042;-74
2022/07/18 00:29:55;;;;;;;9.07;2.10;;;;;;;18.51;53.18;100240.25;344623;28;1393;-74
2022/07/18 00:30:08;;;;;;;9.98;2.10;;;;;;;18.51;53.16;100236.75;343432;28;1834;-74
2022/07/18 00:30:20;;;;;;;9.32;2.10;;;;;;;18.53;53.01;100237.50;344980;28;1392;-74
2022/07/18 00:30:32;;;;;;;5.85;2.35;;;;;;;18.52;52.93;100241.09;344917;28;1103;-74
2022/07/18 00:30:44;;;;;;;6.55;2.45;;;;;;;18.52;53.06;100235.81;344707;28;1309;-74
2022/07/18 00:30:56;;;;;;;7.15;2.40;;;;;;;18.54;53.31;100240.06;343867;28;1245;-74
2022/07/18 00:31:08;;;;;;;6.72;2.20;;;;;;;18.53;53.29;100241.00;343684;28;875;-74
2022/07/18 00:31:20;;;;;;;7.65;2.17;;;;;;;18.53;53.33;100237.50;343491;28;1707;-73
2022/07/18 00:31:33;;;;;;;7.22;2.65;;;;;;;18.52;53.38;100239.28;343974;28;1794;-73
2022/07/18 00:31:45;;;;;;;7.10;2.55;;;;;;;18.50;53.41;100235.06;343795;28;1101;-74
2022/07/18 00:31:57;;;;;;;4.72;1.90;;;;;;;18.51;53.18;100234.97;343731;28;1711;-74
2022/07/18 00:32:09;;;;;;;4.50;1.98;;;;;;;18.52;52.93;100235.81;345243;28;1086;-74
2022/07/18 00:32:21;;;;;;;4.43;2.10;;;;;;;18.51;52.85;100234.97;344097;28;1982;-74
2022/07/18 00:32:33;;;;;;;7.22;2.30;;;;;;;18.50;52.69;100235.06;344725;28;1565;-74
2022/07/18 00:32:45;;;;;;;9.00;2.38;;;;;;;18.52;52.45;100235.81;344871;28;1180;-74
2022/07/18 00:32:57;;;;;;;9.48;2.30;;;;;;;18.54;52.54;100236.56;344901;28;1311;-74
2022/07/18 00:33:09;;;;;;;7.35;2.20;;;;;;;18.56;52.45;100239.97;344947;28;1293;-74
2022/07/18 00:33:21;;;;;;;5.20;2.10;;;;;;;18.57;52.45;100236.38;344041;28;1795;-74
2022/07/18 00:33:33;;;;;;;4.53;1.92;;;;;;;18.58;52.57;100232.84;345036;28;1629;-74
2022/07/18 00:33:45;;;;;;;4.55;2.00;;;;;;;18.58;52.13;100240.72;344692;28;1024;-74
2022/07/18 00:33:57;;;;;;;5.43;2.05;;;;;;;18.58;52.22;100238.09;344815;28;1389;-74
2022/07/18 00:34:09;;;;;;;5.53;2.03;;;;;;;18.57;52.35;100233.75;344900;28;1183;-74
2022/07/18 00:34:21;;;;;;;4.80;2.00;;;;;;;18.59;52.64;100239.78;343912;28;1856;-74
2022/07/18 00:34:34;;;;;;;4.47;2.10;;;;;;;18.60;52.52;100240.66;344887;28;1653;-74
2022/07/18 00:34:46;;;;;;;5.28;2.30;;;;;;;18.56;53.16;100239.97;344885;28;1203;-75
2022/07/18 00:34:58;;;;;;;5.57;2.20;;;;;;;18.56;53.11;100235.56;343501;28;1757;-73
2022/07/18 00:35:10;;;;;;;8.38;2.03;;;;;;;18.56;52.80;100234.72;345042;28;1115;-74
2022/07/18 00:35:22;;;;;;;8.82;2.00;;;;;;;18.58;52.89;100238.09;344382;28;1658;-74
2022/07/18 00:35:34;;;;;;;7.13;2.10;;;;;;;18.56;52.88;100235.56;344536;28;1872;-74
2022/07/18 00:35:46;;;;;;;6.25;2.20;;;;;;;18.56;52.72;100239.97;344863;28;1215;-74
2022/07/18 00:35:58;;;;;;;6.03;2.10;;;;;;;18.55;52.91;100243.53;344785;28;1589;-74
2022/07/18 00:36:11;;;;;;;5.97;2.00;;;;;;;18.56;52.95;100234.72;344876;28;1089;-74
2022/07/18 00:36:23;;;;;;;5.18;1.95;;;;;;;18.55;53.25;100239.13;344262;28;1688;-74
2022/07/18 00:36:35;;;;;;;5.07;2.03;;;;;;;18.55;53.25;100238.25;344768;28;1678;-74
2022/07/18 00:36:47;;;;;;;5.68;2.13;;;;;;;18.55;52.68;100238.25;344815;28;1340;-74
2022/07/18 00:36:58;;;;;;;5.05;2.10;;;;;;;18.57;52.54;100236.38;345309;28;1584;-74
2022/07/18 00:37:10;;;;;;;5.18;2.00;;;;;;;18.55;53.09;100233.88;346240;28;1206;-74
2022/07/18 00:37:23;;;;;;;6.70;2.10;;;;;;;18.52;53.20;100234.03;343669;28;1767;-74
2022/07/18 00:37:35;;;;;;;6.53;2.08;;;;;;;18.52;53.13;100235.81;344949;28;1897;-74
2022/07/18 00:37:46;;;;;;;4.95;1.95;;;;;;;18.49;53.07;100228.94;344950;28;955;-74
2022/07/18 00:37:58;;;;;;;5.22;2.00;;;;;;;18.47;53.45;100232.59;344237;28;2286;-74
2022/07/18 00:38:10;;;;;;;7.20;2.13;;;;;;;18.48;53.29;100240.41;345416;28;1047;-74
2022/07/18 00:38:22;;;;;;;7.55;2.30;;;;;;;18.47;53.10;100236.09;343769;28;1654;-74
2022/07/18 00:38:35;;;;;;;6.68;2.15;;;;;;;18.46;53.10;100236.16;343968;28;1808;-73
2022/07/18 00:38:47;;;;;;;7.43;2.15;;;;;;;18.46;53.17;100233.53;345273;28;1295;-74
2022/07/18 00:38:59;;;;;;;7.57;2.10;;;;;;;18.46;53.20;100233.53;345161;28;1312;-74
2022/07/18 00:39:11;;;;;;;8.02;2.10;;;;;;;18.46;53.18;100238.78;344568;28;2246;-74
2022/07/18 00:39:24;;;;;;;7.63;1.90;;;;;;;18.46;53.17;100239.63;344485;28;1624;-74
2022/07/18 00:39:36;;;;;;;6.30;1.98;;;;;;;18.47;53.46;100235.22;344836;28;1213;-74
2022/07/18 00:39:48;;;;;;;6.88;2.10;;;;;;;18.48;53.48;100236.94;345179;28;1058;-74
2022/07/18 00:40:00;;;;;;;6.65;2.10;;;;;;;18.47;53.41;100236.09;344984;28;1558;-74
2022/07/18 00:40:12;;;;;;;6.57;2.13;;;;;;;18.47;53.54;100232.59;345262;28;1221;-74
2022/07/18 00:40:24;;;;;;;6.28;2.35;;;;;;;18.47;53.66;100237.84;344642;28;1398;-74
2022/07/18 00:40:36;;;;;;;9.45;2.30;;;;;;;18.48;53.47;100229.88;344885;28;1049;-75
2022/07/18 00:40:48;;;;;;;9.00;2.13;;;;;;;18.48;53.50;100234.28;345222;28;1018;-74
2022/07/18 00:41:00;;;;;;;9.18;2.33;;;;;;;18.47;53.58;100240.47;344548;28;1809;-74
2022/07/18 00:41:16;;;;;;;8.05;2.42;;;;;;;18.47;53.65;100235.22;345075;28;1300;-74
2022/07/18 00:41:28;;;;;;;9.63;2.65;;;;;;;18.47;53.38;100235.22;345992;28;1646;-74
2022/07/18 00:41:45;;;;;;;9.65;2.60;;;;;;;18.45;53.53;100231.81;346185;28;1063;-74
2022/07/18 00:41:57;;;;;;;6.07;2.20;;;;;;;18.44;53.24;100238.03;345423;28;1785;-73
2022/07/18 00:42:09;;;;;;;6.20;1.85;;;;;;;18.44;53.51;100227.50;344554;28;1701;-74
2022/07/18 00:42:21;;;;;;;6.20;1.83;;;;;;;18.45;53.54;100232.69;344300;28;1773;-74
2022/07/18 00:42:33;;;;;;;5.32;2.08;;;;;;;18.45;53.69;100237.09;344139;28;2023;-74
2022/07/18 00:42:46;;;;;;;4.80;2.03;;;;;;;18.45;53.75;100237.09;343662;28;1174;-75
2022/07/18 00:42:58;;;;;;;6.88;2.10;;;;;;;18.46;53.98;100238.78;345184;28;1257;-74
2022/07/18 00:43:14;;;;;;;9.23;2.20;;;;;;;18.48;53.36;100231.66;346162;28;1014;-74
2022/07/18 00:43:26;;;;;;;9.38;2.28;;;;;;;18.49;53.34;100238.59;343873;28;1492;-74
2022/07/18 00:43:38;;;;;;;5.65;1.98;;;;;;;18.49;52.92;100235.97;344908;28;1058;-74
2022/07/18 00:43:50;;;;;;;5.65;2.00;;;;;;;18.48;53.41;100231.66;344924;28;1134;-74
2022/07/18 00:44:02;;;;;;;5.38;2.00;;;;;;;18.48;53.86;100231.66;344099;28;1886;-74
2022/07/18 00:44:23;;;;;;;5.50;2.00;;;;;;;18.44;53.78;100232.78;344407;28;1845;-74
2022/07/18 00:44:35;;;;;;;9.30;2.20;;;;;;;18.44;53.91;100235.41;344503;28;1969;-74
2022/07/18 00:44:52;;;;;;;7.55;2.10;;;;;;;18.42;53.66;100237.28;344942;28;1035;-74
2022/07/18 00:45:05;;;;;;;3.17;1.77;;;;;;;18.40;53.44;100233.88;343058;28;1746;-74
2022/07/18 00:45:17;;;;;;;4.40;1.80;;;;;;;18.40;53.57;100239.16;342411;28;1859;-75
2022/07/18 00:45:29;;;;;;;5.53;1.85;;;;;;;18.40;53.68;100233.88;342875;28;1860;-75
2022/07/18 00:45:45;;;;;;;5.68;2.00;;;;;;;18.40;53.36;100239.16;342836;28;1944;-74
2022/07/18 00:45:57;;;;;;;5.20;2.10;;;;;;;18.41;53.64;100235.56;342519;28;1468;-74
2022/07/18 00:46:13;;;;;;;5.45;2.08;;;;;;;18.40;53.58;100233.88;342334;28;1173;-74
2022/07/18 00:46:26;;;;;;;5.20;2.15;;;;;;;18.41;53.80;100240.81;342721;28;1819;-74
2022/07/18 00:46:39;;;;;;;4.03;2.10;;;;;;;18.41;53.79;100236.44;344344;28;1972;-74
2022/07/18 00:46:52;;;;;;;6.68;2.15;;;;;;;18.42;53.94;100232.00;345034;28;1278;-74
2022/07/18 00:47:05;;;;;;;7.57;2.10;;;;;;;18.38;54.00;100230.47;344775;28;1193;-74
2022/07/18 00:47:17;;;;;;;5.68;2.00;;;;;;;18.40;53.48;100237.34;343927;28;1726;-74
2022/07/18 00:47:29;;;;;;;5.57;2.03;;;;;;;18.41;53.37;100233.81;344775;28;1734;-74
2022/07/18 00:47:41;;;;;;;4.43;2.00;;;;;;;18.41;53.04;100236.44;344145;28;1367;-74
2022/07/18 00:47:53;;;;;;;5.60;2.00;;;;;;;18.41;52.93;100235.56;344930;28;1177;-74
2022/07/18 00:48:06;;;;;;;5.40;2.05;;;;;;;18.40;53.12;100233.88;345050;28;1061;-74
2022/07/18 00:48:19;;;;;;;4.95;2.20;;;;;;;18.39;53.39;100233.03;343873;28;1658;-74
2022/07/18 00:48:31;;;;;;;6.05;2.22;;;;;;;18.38;53.26;100236.59;344309;28;1725;-74
2022/07/18 00:48:43;;;;;;;6.70;2.10;;;;;;;18.38;53.73;100235.75;345103;28;1221;-74
2022/07/18 00:48:56;;;;;;;6.95;2.20;;;;;;;18.36;54.12;100234.03;345026;28;1185;-73
2022/07/18 00:49:08;;;;;;;5.95;2.03;;;;;;;18.36;53.98;100234.03;344006;28;1480;-74
2022/07/18 00:49:20;;;;;;;4.70;2.00;;;;;;;18.35;53.89;100237.63;343362;28;1753;-75
2022/07/18 00:49:32;;;;;;;4.28;2.00;;;;;;;18.33;54.10;100239.47;344817;28;1939;-74
2022/07/18 00:49:44;;;;;;;7.45;2.20;;;;;;;18.35;54.41;100237.63;344987;28;1117;-74
2022/07/18 00:49:57;;;;;;;9.68;2.38;;;;;;;18.36;53.97;100236.66;344844;28;1280;-75
2022/07/18 00:50:10;;;;;;;7.57;2.25;;;;;;;18.36;53.78;100234.03;346466;28;1224;-74
2022/07/18 00:50:23;;;;;;;5.68;2.10;;;;;;;18.38;53.58;100239.22;344168;28;1750;-74
2022/07/18 00:50:35;;;;;;;4.05;2.00;;;;;;;18.41;53.40;100238.19;344942;28;1864;-74
2022/07/18 00:50:47;;;;;;;4.40;1.95;;;;;;;18.41;53.06;100240.81;345011;28;1059;-74
2022/07/18 00:50:59;;;;;;;4.53;2.10;;;;;;;18.41;52.95;100233.81;345331;28;1099;-74
2022/07/18 00:51:11;;;;;;;6.15;2.00;;;;;;;18.41;52.94;100241.69;346499;28;1058;-74
2022/07/18 00:51:23;;;;;;;6.88;2.00;;;;;;;18.41;53.29;100239.06;344201;28;1632;-73
2022/07/18 00:51:37;;;;;;;5.78;1.90;;;;;;;18.42;53.33;100242.53;344727;28;1749;-74
2022/07/18 00:51:50;;;;;;;8.00;2.30;;;;;;;18.38;53.65;100235.75;345017;28;1010;-74
2022/07/18 00:52:03;;;;;;;9.00;2.40;;;;;;;18.36;53.62;100239.28;345017;28;1596;-75
2022/07/18 00:52:15;;;;;;;7.05;2.15;;;;;;;18.35;53.85;100242.88;346116;28;1027;-74
2022/07/18 00:52:27;;;;;;;4.30;2.10;;;;;;;18.34;53.92;100242.97;346000;28;1073;-75
2022/07/18 00:52:39;;;;;;;4.93;2.13;;;;;;;18.31;53.67;100240.47;344503;28;1221;-75
2022/07/18 00:52:51;;;;;;;5.47;2.30;;;;;;;18.31;53.82;100243.09;344958;28;1261;-75
2022/07/18 00:53:05;;;;;;;6.55;2.40;;;;;;;18.31;53.80;100238.72;344654;28;1616;-74
2022/07/18 00:53:17;;;;;;;5.47;2.20;;;;;;;18.30;53.80;100239.63;343808;28;1844;-74
2022/07/18 00:53:29;;;;;;;5.03;2.13;;;;;;;18.27;54.25;100239.81;343975;28;1745;-75
2022/07/18 00:53:41;;;;;;;4.55;2.05;;;;;;;18.27;54.04;100236.31;345211;28;1096;-75
2022/07/18 00:53:53;;;;;;;5.45;2.05;;;;;;;18.28;53.83;100246.78;345233;28;1030;-74
2022/07/18 00:54:05;;;;;;;5.18;2.00;;;;;;;18.28;54.13;100244.13;346264;28;1599;-74
2022/07/18 00:54:18;;;;;;;5.85;2.08;;;;;;;18.25;54.39;100241.69;344535;28;1778;-74
2022/07/18 00:54:32;;;;;;;6.38;1.90;;;;;;;18.27;54.40;100239.81;343832;28;1253;-74
2022/07/18 00:54:44;;;;;;;5.30;2.00;;;;;;;18.27;54.64;100242.47;343630;28;1046;-74
2022/07/18 00:54:56;;;;;;;6.97;2.20;;;;;;;18.27;54.52;100242.47;343639;28;1600;-74
2022/07/18 00:55:08;;;;;;;8.35;2.20;;;;;;;18.27;54.45;100245.09;345248;28;1114;-74
2022/07/18 00:55:21;;;;;;;6.55;2.08;;;;;;;18.27;54.00;100239.81;344303;28;1741;-75
2022/07/18 00:55:33;;;;;;;4.35;2.05;;;;;;;18.28;54.12;100243.31;344533;28;1676;-75
2022/07/18 00:55:46;;;;;;;4.57;2.10;;;;;;;18.29;53.96;100247.63;345147;28;1298;-74
2022/07/18 00:56:00;;;;;;;5.38;2.10;;;;;;;18.28;54.09;100246.78;344597;28;1672;-75
2022/07/18 00:56:16;;;;;;;6.18;2.03;;;;;;;18.26;54.11;100238.09;346624;28;1129;-75
2022/07/18 00:56:28;;;;;;;5.88;2.03;;;;;;;18.26;54.10;100232.84;344642;28;1875;-75
2022/07/18 00:56:41;;;;;;;5.22;2.00;;;;;;;18.25;54.41;100239.06;344128;28;835;-75
2022/07/18 00:56:54;;;;;;;5.57;2.03;;;;;;;18.25;54.11;100240.81;343904;28;1110;-74
2022/07/18 00:57:06;;;;;;;6.30;2.38;;;;;;;18.25;54.16;100244.31;343909;28;1298;-75
2022/07/18 00:57:18;;;;;;;6.15;2.22;;;;;;;18.25;54.22;100240.81;343804;28;1727;-74
2022/07/18 00:57:30;;;;;;;6.18;2.13;;;;;;;18.25;53.99;100241.69;344995;28;1699;-75
2022/07/18 00:57:43;;;;;;;7.40;1.95;;;;;;;18.27;54.38;100242.47;343809;28;1308;-75
2022/07/18 00:57:56;;;;;;;6.20;2.17;;;;;;;18.26;54.20;100243.38;343724;28;1746;-74
2022/07/18 00:58:09;;;;;;;6.47;2.30;;;;;;;18.26;54.44;100246.00;345176;28;1081;-75
2022/07/18 00:58:21;;;;;;;7.88;2.20;;;;;;;18.24;54.17;100241.78;344111;28;1703;-74
2022/07/18 00:58:34;;;;;;;7.38;2.10;;;;;;;18.24;54.12;100239.97;344872;28;1679;-74
2022/07/18 00:58:47;;;;;;;7.47;2.20;;;;;;;18.23;54.41;100242.69;344999;28;1558;-75
2022/07/18 00:58:59;;;;;;;4.85;2.10;;;;;;;18.22;54.62;100243.63;345041;28;1381;-75